This is the latest recevied weather packets stored in our database for station/object KTPF. If no packets are shown the sender has not sent any weather packets the latest 10 day(s).
| Time | Temp. | Humidity | Pressure | Rain* | Wind** | Luminosity | Snow |
|---|---|---|---|---|---|---|---|
| 1777676621 | 27.78° C | 58% | 1009.8 hPa | - | - | - | - |
| 1777676024 | 28.89° C | 51% | 1009.8 hPa | - | - | - | - |
| 1777675420 | 28.89° C | 51% | 1009.8 hPa | - | - | - | - |
| 1777674824 | 28.89° C | 54% | 1009.8 hPa | - | - | - | - |
| 1777674224 | 28.89° C | 54% | 1009.8 hPa | - | - | - | - |
| 1777673622 | 28.89° C | 54% | 1009.8 hPa | - | - | - | - |
| 1777673028 | 28.89° C | 54% | 1009.8 hPa | - | - | - | - |
| 1777672427 | 28.89° C | 54% | 1009.8 hPa | - | - | - | - |
| 1777671827 | 28.89° C | 54% | 1009.8 hPa | - | - | - | - |
| 1777671224 | 28.89° C | 58% | 1009.8 hPa | - | - | - | - |
| 1777670627 | 28.89° C | 58% | 1009.8 hPa | - | - | - | - |
| 1777670021 | 28.89° C | 58% | 1009.8 hPa | - | - | - | - |
| 1777669421 | 28.89° C | 58% | 1009.8 hPa | - | - | - | - |
| 1777668823 | 30° C | 55% | 1009.8 hPa | - | - | - | - |
| 1777668228 | 30° C | 55% | 1009.8 hPa | - | - | - | - |
| 1777667624 | 28.89° C | 54% | 1009.8 hPa | - | - | - | - |
| 1777667023 | 28.89° C | 54% | 1009.8 hPa | - | - | - | - |
| 1777666421 | 30.56° C | 48% | 1010.5 hPa | - | - | - | - |
| 1777665823 | 30.56° C | 48% | 1010.5 hPa | - | - | - | - |
| 1777665225 | 30° C | 51% | 1010.8 hPa | - | - | - | - |
| 1777664625 | 30° C | 51% | 1010.8 hPa | - | - | - | - |
| 1777664025 | 30.56° C | 52% | 1011.2 hPa | - | - | - | - |
| 1777663429 | 30.56° C | 52% | 1011.2 hPa | - | - | - | - |
| 1777662820 | 30.56° C | 52% | 1011.9 hPa | - | - | - | - |
| 1777662226 | 30.56° C | 52% | 1011.9 hPa | - | - | - | - |
* Rain since midnight (hover to see other rain measurements)
** Current wind speed in m/s (hover to see current wind gust speed)